Time;durP1;ratioP1;P1;durP2;ratioP2;P2;SDS_P1;SDS_P2;PMS_P1;PMS_P2;Temp;Humidity;BMP_temperature;BMP_pressure;BME280_temperature;BME280_humidity;BME280_pressure;Samples;Min_cycle;Max_cycle;Signal;HPM_P1;HPM_P2
2022/09/02 00:01:32;;;;;;;0.73;0.43;;;13.50;99.90;;;;;;4996633;28;20593;-88
2022/09/02 00:04:01;;;;;;;0.67;0.20;;;13.50;99.90;;;;;;5015122;28;20495;-85
2022/09/02 00:06:28;;;;;;;1.63;0.30;;;13.30;99.90;;;;;;4997418;28;20830;-84
2022/09/02 00:08:54;;;;;;;0.50;0.10;;;13.40;99.90;;;;;;5014973;28;20414;-86
2022/09/02 00:11:23;;;;;;;0.40;0.20;;;13.30;99.90;;;;;;5014313;28;20473;-86
2022/09/02 00:13:49;;;;;;;0.70;0.20;;;13.40;99.90;;;;;;5015178;28;20168;-86
2022/09/02 00:16:16;;;;;;;0.70;0.20;;;13.30;99.90;;;;;;5015120;28;20418;-85
2022/09/02 00:18:42;;;;;;;0.87;0.20;;;13.30;99.90;;;;;;5014616;28;20409;-85
2022/09/02 00:21:10;;;;;;;0.90;0.20;;;13.30;99.90;;;;;;5013228;28;20553;-85
2022/09/02 00:23:37;;;;;;;0.40;0.20;;;13.30;99.90;;;;;;5014784;28;20780;-85
2022/09/02 00:26:03;;;;;;;0.40;0.20;;;13.30;99.90;;;;;;4995931;28;20852;-87
2022/09/02 00:28:29;;;;;;;1.07;0.20;;;13.30;99.90;;;;;;4995900;28;20425;-87
2022/09/02 00:30:56;;;;;;;0.60;0.30;;;13.30;99.90;;;;;;5013269;28;20262;-86
2022/09/02 00:33:22;;;;;;;0.60;0.20;;;13.30;99.90;;;;;;4997286;28;20639;-86
2022/09/02 00:35:47;;;;;;;0.83;0.20;;;13.30;99.90;;;;;;5013035;28;20462;-87
2022/09/02 00:38:13;;;;;;;0.60;0.20;;;13.30;99.90;;;;;;5013564;28;20177;-86
2022/09/02 00:40:45;;;;;;;0.30;0.20;;;13.20;99.90;;;;;;5013542;28;20207;-85
2022/09/02 00:43:10;;;;;;;0.80;0.30;;;13.10;99.90;;;;;;5013069;28;20178;-84
2022/09/02 00:45:36;;;;;;;0.50;0.20;;;13.00;99.90;;;;;;5014368;28;20425;-87
2022/09/02 00:48:03;;;;;;;0.40;0.27;;;12.90;99.90;;;;;;5014367;28;20671;-87
2022/09/02 00:50:31;;;;;;;0.70;0.30;;;13.00;99.90;;;;;;4997139;28;20903;-88
2022/09/02 00:53:03;;;;;;;1.27;0.20;;;12.90;99.90;;;;;;4997276;28;20922;-88
2022/09/02 00:55:33;;;;;;;0.40;0.20;;;12.90;99.90;;;;;;5013724;28;20434;-88
2022/09/02 00:58:04;;;;;;;0.73;0.20;;;12.90;99.90;;;;;;4996608;28;20453;-87
2022/09/02 01:00:34;;;;;;;0.70;0.20;;;12.90;99.90;;;;;;4996673;28;20473;-88
2022/09/02 01:03:04;;;;;;;0.67;0.20;;;12.90;99.90;;;;;;4996598;28;20425;-87
2022/09/02 01:05:32;;;;;;;0.50;0.20;;;12.80;99.90;;;;;;4996517;28;20422;-87
2022/09/02 01:07:59;;;;;;;0.30;0.20;;;12.80;99.90;;;;;;5012825;28;20954;-84
2022/09/02 01:10:34;;;;;;;0.40;0.20;;;12.80;99.90;;;;;;5014198;28;20411;-84
2022/09/02 01:13:06;;;;;;;0.40;0.20;;;12.70;99.90;;;;;;5014300;28;20418;-85
2022/09/02 01:15:36;;;;;;;0.63;0.30;;;12.60;99.90;;;;;;4980243;28;20469;-85
2022/09/02 01:18:03;;;;;;;0.40;0.20;;;12.50;99.90;;;;;;5012991;28;20442;-85
2022/09/02 01:20:28;;;;;;;0.40;0.20;;;12.50;99.90;;;;;;5012945;28;20469;-85
2022/09/02 01:22:57;;;;;;;0.40;0.20;;;12.40;99.90;;;;;;5014162;28;20975;-86
2022/09/02 01:25:26;;;;;;;0.50;0.10;;;12.50;99.90;;;;;;5013837;28;20169;-86
2022/09/02 01:27:52;;;;;;;0.40;0.20;;;12.30;99.90;;;;;;5014068;28;20422;-86
2022/09/02 01:30:22;;;;;;;0.30;0.20;;;12.30;99.90;;;;;;5012774;28;20434;-86
2022/09/02 01:32:48;;;;;;;0.40;0.20;;;12.20;99.90;;;;;;5013773;28;20507;-86
2022/09/02 01:35:15;;;;;;;0.60;0.37;;;12.10;99.90;;;;;;5008076;28;20433;-86
2022/09/02 01:37:41;;;;;;;0.70;0.27;;;12.10;99.90;;;;;;4994347;28;20415;-85
2022/09/02 01:40:10;;;;;;;0.47;0.20;;;12.00;99.90;;;;;;4993863;28;20997;-85
2022/09/02 01:42:37;;;;;;;1.17;0.20;;;12.00;99.90;;;;;;4994166;28;20776;-85
2022/09/02 01:45:03;;;;;;;0.80;0.30;;;11.90;99.90;;;;;;4976746;28;20505;-86
2022/09/02 01:47:29;;;;;;;0.77;0.20;;;11.90;99.90;;;;;;4992373;28;20428;-86
2022/09/02 01:49:54;;;;;;;0.60;0.20;;;11.90;99.90;;;;;;4992600;28;20561;-86
2022/09/02 01:52:22;;;;;;;0.50;0.20;;;11.90;99.90;;;;;;4994048;28;20590;-85
2022/09/02 01:54:47;;;;;;;0.60;0.20;;;11.80;99.90;;;;;;4993694;28;20186;-86
2022/09/02 01:57:13;;;;;;;1.03;0.20;;;11.70;99.90;;;;;;4993977;28;20413;-86
2022/09/02 01:59:39;;;;;;;0.40;0.20;;;11.70;99.90;;;;;;4993674;28;20210;-85
2022/09/02 02:02:06;;;;;;;0.70;0.20;;;11.60;99.90;;;;;;4997493;28;20456;-87
2022/09/02 02:04:32;;;;;;;1.27;0.20;;;11.60;99.90;;;;;;5012274;28;20422;-86
2022/09/02 02:06:58;;;;;;;1.17;0.20;;;11.50;99.90;;;;;;4994639;28;20440;-86
2022/09/02 02:09:24;;;;;;;0.50;0.30;;;11.50;99.90;;;;;;5013079;28;20489;-86
2022/09/02 02:11:50;;;;;;;0.50;0.20;;;11.50;99.90;;;;;;4995792;28;20858;-85
2022/09/02 02:14:16;;;;;;;0.30;0.10;;;11.40;99.90;;;;;;5013419;28;20494;-85
2022/09/02 02:16:41;;;;;;;0.60;0.20;;;11.30;99.90;;;;;;4995732;28;20212;-85
2022/09/02 02:19:07;;;;;;;0.57;0.23;;;11.30;99.90;;;;;;5012843;28;20454;-85
2022/09/02 02:21:33;;;;;;;0.53;0.20;;;11.30;99.90;;;;;;5013381;28;20171;-86
2022/09/02 02:24:01;;;;;;;0.83;0.40;;;11.30;99.90;;;;;;5013128;28;20242;-86
2022/09/02 02:26:28;;;;;;;0.47;0.23;;;11.20;99.90;;;;;;5013212;28;20221;-85
2022/09/02 02:28:53;;;;;;;0.40;0.20;;;11.20;99.90;;;;;;5011980;28;20478;-85
2022/09/02 02:31:19;;;;;;;0.67;0.20;;;11.20;99.90;;;;;;5012202;28;20926;-87
2022/09/02 02:33:46;;;;;;;0.87;0.20;;;11.20;99.90;;;;;;5013175;28;20185;-86
2022/09/02 02:36:11;;;;;;;1.23;0.67;;;11.10;99.90;;;;;;5013286;28;20175;-86
2022/09/02 02:38:38;;;;;;;0.67;0.30;;;11.10;99.90;;;;;;4995566;28;20424;-88
2022/09/02 02:41:05;;;;;;;1.80;0.40;;;11.10;99.90;;;;;;4995317;28;20264;-87
2022/09/02 02:43:34;;;;;;;0.40;0.27;;;11.10;99.90;;;;;;5013023;28;20418;-86
2022/09/02 02:46:00;;;;;;;0.77;0.20;;;11.10;99.90;;;;;;5013124;28;20991;-87
2022/09/02 02:48:26;;;;;;;1.23;0.20;;;11.10;99.90;;;;;;5003797;28;20569;-87
2022/09/02 02:50:52;;;;;;;0.80;0.20;;;11.10;99.90;;;;;;4986151;28;20629;-86
2022/09/02 02:53:18;;;;;;;0.50;0.20;;;11.00;99.90;;;;;;5011509;28;20172;-87
2022/09/02 02:55:44;;;;;;;0.80;0.23;;;11.00;99.90;;;;;;5012670;28;20412;-87
2022/09/02 02:58:10;;;;;;;0.60;0.23;;;11.00;99.90;;;;;;5012700;28;20420;-87
2022/09/02 03:00:36;;;;;;;0.50;0.10;;;11.00;99.90;;;;;;5016829;28;20474;-87
2022/09/02 03:03:05;;;;;;;0.60;0.30;;;10.90;99.90;;;;;;4999372;28;20782;-86
2022/09/02 03:05:31;;;;;;;0.80;0.30;;;10.90;99.90;;;;;;4999296;28;20564;-86
2022/09/02 03:07:56;;;;;;;0.50;0.20;;;10.80;99.90;;;;;;5016718;28;20425;-86
2022/09/02 03:10:23;;;;;;;0.30;0.20;;;10.70;99.90;;;;;;5015155;28;20425;-85
2022/09/02 03:12:50;;;;;;;0.50;0.20;;;10.80;99.90;;;;;;5016711;28;20172;-87
2022/09/02 03:15:17;;;;;;;0.60;0.30;;;10.80;99.90;;;;;;4999094;28;20912;-88
2022/09/02 03:17:47;;;;;;;0.40;0.20;;;10.80;99.90;;;;;;4999154;28;20428;-87
2022/09/02 03:20:14;;;;;;;0.47;0.20;;;10.70;99.90;;;;;;4998899;28;20624;-86
2022/09/02 03:22:41;;;;;;;0.40;0.30;;;10.70;99.90;;;;;;5016448;28;20867;-87
2022/09/02 03:25:09;;;;;;;0.40;0.30;;;10.80;99.90;;;;;;4998474;28;20426;-87
2022/09/02 03:27:38;;;;;;;0.40;0.20;;;10.70;99.90;;;;;;5016233;28;20422;-87
2022/09/02 03:30:09;;;;;;;0.93;0.40;;;10.70;99.90;;;;;;5016236;28;20440;-86
2022/09/02 03:32:34;;;;;;;0.40;0.20;;;10.70;99.90;;;;;;4998722;28;20819;-87
2022/09/02 03:35:02;;;;;;;0.53;0.20;;;10.70;99.90;;;;;;5015785;28;20542;-87
2022/09/02 03:37:27;;;;;;;0.67;0.20;;;10.70;99.90;;;;;;4998285;28;20205;-85
2022/09/02 03:39:53;;;;;;;0.30;0.20;;;10.60;99.90;;;;;;4997757;28;20956;-85
2022/09/02 03:42:18;;;;;;;0.73;0.47;;;10.60;99.90;;;;;;5015876;28;20177;-86
2022/09/02 03:44:44;;;;;;;0.47;0.20;;;10.60;99.90;;;;;;5015716;28;20170;-87
2022/09/02 03:47:10;;;;;;;0.40;0.20;;;10.60;99.90;;;;;;5014407;28;20231;-86
2022/09/02 03:49:35;;;;;;;0.90;0.30;;;10.60;99.90;;;;;;4998127;28;20293;-87
2022/09/02 03:52:01;;;;;;;0.50;0.40;;;10.50;99.90;;;;;;4998394;28;20174;-87
2022/09/02 03:54:26;;;;;;;0.83;0.30;;;10.60;99.90;;;;;;5015631;28;20646;-88
2022/09/02 03:56:52;;;;;;;1.20;0.20;;;10.60;99.90;;;;;;5016337;28;20254;-88
2022/09/02 03:59:18;;;;;;;0.67;0.40;;;10.50;99.90;;;;;;5016177;28;20263;-88
2022/09/02 04:01:44;;;;;;;0.80;0.30;;;10.60;99.90;;;;;;5014553;28;20203;-87
2022/09/02 04:04:10;;;;;;;0.97;0.30;;;10.50;99.90;;;;;;5014362;28;20433;-88
2022/09/02 04:06:36;;;;;;;0.70;0.20;;;10.50;99.90;;;;;;5014526;28;20424;-88
2022/09/02 04:09:02;;;;;;;2.00;0.20;;;10.50;99.90;;;;;;5013903;28;20184;-87
2022/09/02 04:11:28;;;;;;;0.87;0.30;;;10.50;99.90;;;;;;5015825;28;20528;-88
2022/09/02 04:13:54;;;;;;;0.80;0.20;;;10.50;99.90;;;;;;5014579;28;20474;-87
2022/09/02 04:16:27;;;;;;;1.53;0.20;;;10.50;99.90;;;;;;5015261;28;20205;-87
2022/09/02 04:18:55;;;;;;;0.93;0.20;;;10.50;99.90;;;;;;5015524;28;20176;-88
2022/09/02 04:21:20;;;;;;;0.57;0.20;;;10.50;99.90;;;;;;4997847;28;20490;-88
2022/09/02 04:23:46;;;;;;;0.90;0.30;;;10.50;99.90;;;;;;4997673;28;20820;-87
2022/09/02 04:26:14;;;;;;;1.23;0.20;;;10.50;99.90;;;;;;5015241;28;20255;-85
2022/09/02 04:28:40;;;;;;;1.80;0.80;;;10.40;99.90;;;;;;5015385;28;20166;-87
2022/09/02 04:31:09;;;;;;;0.53;0.23;;;10.40;99.90;;;;;;5015289;28;20420;-88
2022/09/02 04:33:35;;;;;;;0.90;0.30;;;10.50;99.90;;;;;;4997865;28;20426;-85
2022/09/02 04:36:05;;;;;;;0.67;0.23;;;10.50;99.90;;;;;;4997444;28;20423;-85
2022/09/02 04:38:31;;;;;;;0.77;0.30;;;10.50;99.90;;;;;;5015223;28;20403;-86
2022/09/02 04:40:57;;;;;;;0.40;0.20;;;10.50;99.90;;;;;;4997244;28;20477;-85
2022/09/02 04:43:25;;;;;;;0.80;0.77;;;10.40;99.90;;;;;;5014923;28;20189;-86
2022/09/02 04:45:51;;;;;;;1.27;0.40;;;10.40;99.90;;;;;;5015133;28;20426;-85
2022/09/02 04:48:17;;;;;;;0.57;0.30;;;10.40;99.90;;;;;;5014714;28;20461;-85
2022/09/02 04:50:44;;;;;;;0.50;0.30;;;10.50;99.90;;;;;;5015018;28;20536;-87
2022/09/02 04:53:10;;;;;;;0.50;0.20;;;10.50;99.90;;;;;;5014723;28;20964;-86
2022/09/02 04:55:39;;;;;;;1.00;0.37;;;10.50;99.90;;;;;;5015007;28;20426;-85
2022/09/02 04:58:09;;;;;;;0.40;0.20;;;10.50;99.90;;;;;;5015789;28;20435;-86
2022/09/02 05:00:38;;;;;;;0.80;0.33;;;10.50;99.90;;;;;;5016277;28;20702;-85
2022/09/02 05:03:05;;;;;;;1.10;0.20;;;10.50;99.90;;;;;;5025945;28;20483;-86
2022/09/02 05:05:31;;;;;;;0.90;0.30;;;10.50;99.90;;;;;;5014917;28;20429;-86
2022/09/02 05:08:06;;;;;;;0.70;0.27;;;10.60;99.90;;;;;;5005722;28;20446;-85
2022/09/02 05:10:31;;;;;;;0.60;0.20;;;10.60;99.90;;;;;;5006822;28;20421;-85
2022/09/02 05:12:58;;;;;;;0.93;0.50;;;10.70;99.90;;;;;;4987245;28;20433;-87
2022/09/02 05:15:25;;;;;;;0.40;0.30;;;10.80;99.90;;;;;;5014267;28;20624;-87
2022/09/02 05:17:51;;;;;;;0.60;0.20;;;10.80;99.90;;;;;;4996585;28;20426;-88
2022/09/02 05:20:18;;;;;;;2.93;0.30;;;10.80;99.90;;;;;;5011729;28;20465;-86
2022/09/02 05:22:45;;;;;;;0.90;0.23;;;10.90;99.90;;;;;;4995663;28;20441;-88
2022/09/02 05:25:10;;;;;;;1.30;0.20;;;11.00;99.90;;;;;;5013942;28;20423;-87
2022/09/02 05:27:36;;;;;;;1.20;0.43;;;11.20;99.90;;;;;;4996309;28;20419;-87
2022/09/02 05:30:05;;;;;;;0.50;0.30;;;11.30;99.90;;;;;;4996394;28;20652;-85
2022/09/02 05:32:31;;;;;;;0.40;0.20;;;12.00;99.90;;;;;;5014302;28;20546;-86
2022/09/02 05:34:57;;;;;;;0.80;0.27;;;13.20;99.90;;;;;;4996582;28;20428;-86
2022/09/02 05:37:25;;;;;;;0.63;0.37;;;14.30;99.90;;;;;;5014131;28;20223;-86
2022/09/02 05:39:52;;;;;;;1.07;0.40;;;15.10;1.00;;;;;;4996083;28;20211;-86
2022/09/02 05:42:19;;;;;;;0.73;0.43;;;15.30;1.00;;;;;;4996293;28;20472;-86
2022/09/02 05:44:45;;;;;;;0.60;0.30;;;15.80;99.90;;;;;;5013846;28;20899;-86
2022/09/02 05:47:10;;;;;;;0.80;0.40;;;16.00;1.00;;;;;;5013857;28;20447;-87
2022/09/02 05:49:36;;;;;;;0.77;0.20;;;16.50;99.90;;;;;;4996153;28;20225;-87
2022/09/02 05:52:03;;;;;;;0.40;0.23;;;17.10;1.00;;;;;;4996192;28;20563;-88
2022/09/02 05:54:34;;;;;;;1.27;0.20;;;17.60;77.40;;;;;;4995982;28;20933;-88
2022/09/02 05:57:09;;;;;;;0.63;0.30;;;18.10;1.00;;;;;;5013657;28;20414;-86
2022/09/02 05:59:41;;;;;;;0.90;0.33;;;18.80;99.90;;;;;;5013655;28;20468;-85
2022/09/02 06:02:08;;;;;;;0.50;0.30;;;19.30;99.90;;;;;;5013610;28;20909;-84
2022/09/02 06:04:47;;;;;;;0.70;0.27;;;20.00;99.90;;;;;;5013508;28;20448;-84
2022/09/02 06:07:13;;;;;;;1.40;0.20;;;19.80;99.90;;;;;;5012287;28;20472;-87
2022/09/02 06:09:40;;;;;;;1.30;0.50;;;20.40;99.90;;;;;;5013089;28;20432;-85
2022/09/02 06:12:07;;;;;;;1.07;0.30;;;20.60;57.30;;;;;;4995692;28;20439;-85
2022/09/02 06:14:33;;;;;;;0.50;0.20;;;20.80;42.00;;;;;;4974523;28;20928;-88
2022/09/02 06:16:59;;;;;;;0.73;0.30;;;20.90;28.90;;;;;;5013243;28;20416;-87
2022/09/02 06:19:27;;;;;;;0.40;0.20;;;21.40;17.10;;;;;;5013268;28;20554;-87
2022/09/02 06:21:54;;;;;;;0.50;0.20;;;21.30;13.40;;;;;;5013382;28;20168;-88
2022/09/02 06:24:19;;;;;;;1.17;0.20;;;21.70;12.10;;;;;;5013149;28;20415;-87
2022/09/02 06:26:45;;;;;;;0.70;0.20;;;22.40;3.10;;;;;;5012306;28;20921;-88
2022/09/02 06:29:12;;;;;;;0.60;0.27;;;22.90;1.00;;;;;;5013525;28;20641;-85
2022/09/02 06:31:44;;;;;;;0.67;0.20;;;22.70;1.00;;;;;;4996854;28;20182;-90
2022/09/02 06:34:12;;;;;;;1.27;0.57;;;22.70;1.00;;;;;;5017321;28;20417;-91
2022/09/02 06:36:38;;;;;;;0.50;0.20;;;22.80;1.00;;;;;;5017429;28;20765;-86
2022/09/02 06:39:04;;;;;;;0.60;0.30;;;23.00;1.00;;;;;;5016855;28;20489;-87
2022/09/02 06:41:32;;;;;;;0.97;0.50;;;23.60;1.00;;;;;;5016965;28;20521;-87
2022/09/02 06:44:00;;;;;;;0.50;0.20;;;23.60;1.00;;;;;;5017241;28;20275;-88
2022/09/02 06:46:29;;;;;;;0.67;0.20;;;23.70;1.00;;;;;;4999610;28;20429;-86
2022/09/02 06:48:55;;;;;;;0.40;0.20;;;23.90;1.00;;;;;;5016708;28;20488;-86
2022/09/02 06:51:26;;;;;;;0.57;0.30;;;24.10;1.00;;;;;;5017130;28;20418;-86
2022/09/02 06:53:51;;;;;;;0.60;0.20;;;24.20;1.00;;;;;;5016648;28;20186;-87
2022/09/02 06:56:20;;;;;;;0.67;0.30;;;24.50;1.00;;;;;;5016871;28;20434;-87
2022/09/02 06:58:45;;;;;;;0.50;0.20;;;24.30;1.00;;;;;;5016859;28;20178;-86
2022/09/02 07:01:23;;;;;;;0.73;0.40;;;24.40;1.00;;;;;;5016718;28;20476;-88
2022/09/02 07:06:36;;;;;;;0.70;0.20;;;24.70;1.00;;;;;;5017071;28;20489;-88
2022/09/02 07:09:04;;;;;;;1.13;0.37;;;25.10;1.00;;;;;;4998768;28;20425;-87
2022/09/02 07:11:30;;;;;;;0.60;0.20;;;25.30;1.00;;;;;;5016682;28;20496;-87
2022/09/02 07:13:59;;;;;;;0.70;0.20;;;25.50;1.00;;;;;;5016604;28;20453;-88
2022/09/02 07:16:24;;;;;;;0.50;0.20;;;25.10;1.00;;;;;;5016573;28;20194;-86
2022/09/02 07:18:50;;;;;;;0.60;0.30;;;24.50;1.00;;;;;;5016485;28;20418;-87
2022/09/02 07:21:15;;;;;;;0.60;0.20;;;25.20;1.00;;;;;;5016335;28;20241;-86
2022/09/02 07:23:41;;;;;;;0.50;0.20;;;25.50;1.00;;;;;;5016117;28;20171;-86
2022/09/02 07:26:15;;;;;;;0.70;0.30;;;25.10;1.00;;;;;;4996009;28;20535;-86
2022/09/02 07:28:42;;;;;;;0.70;0.20;;;25.40;1.00;;;;;;5001319;28;20225;-86
2022/09/02 07:31:12;;;;;;;0.93;0.30;;;25.70;1.00;;;;;;5011803;28;20844;-85
2022/09/02 07:33:39;;;;;;;2.20;0.20;;;25.60;1.00;;;;;;4996491;28;20429;-85
2022/09/02 07:36:05;;;;;;;0.50;0.20;;;25.30;1.00;;;;;;4996716;28;20415;-86
2022/09/02 07:38:32;;;;;;;1.10;0.20;;;25.70;1.00;;;;;;4995388;28;20445;-91
2022/09/02 07:40:58;;;;;;;0.43;0.20;;;25.60;1.00;;;;;;4995215;28;20819;-87
2022/09/02 07:43:25;;;;;;;2.20;0.30;;;25.40;1.00;;;;;;5010938;28;20419;-87
2022/09/02 07:45:52;;;;;;;0.40;0.20;;;26.10;1.00;;;;;;4996298;28;20493;-79
2022/09/02 07:48:17;;;;;;;0.83;0.30;;;25.40;1.00;;;;;;5009756;28;20473;-85
2022/09/02 07:50:46;;;;;;;0.63;0.20;;;25.20;1.00;;;;;;5015877;28;20497;-86
2022/09/02 07:53:12;;;;;;;1.47;0.20;;;26.00;1.00;;;;;;5015374;28;20190;-85
2022/09/02 07:55:39;;;;;;;0.83;0.30;;;25.70;1.00;;;;;;5015278;28;20493;-86
2022/09/02 07:58:05;;;;;;;0.80;0.30;;;26.00;1.00;;;;;;5015741;28;20984;-85
2022/09/02 08:00:31;;;;;;;0.50;0.20;;;26.80;1.00;;;;;;5014445;28;20465;-85
2022/09/02 08:02:58;;;;;;;0.60;0.23;;;26.60;1.00;;;;;;5015602;28;20195;-86
2022/09/02 08:05:24;;;;;;;0.60;0.40;;;26.90;1.00;;;;;;5015657;28;20167;-85
2022/09/02 08:07:50;;;;;;;0.63;0.20;;;27.20;1.00;;;;;;5015597;28;20414;-86
2022/09/02 08:10:16;;;;;;;1.00;0.20;;;28.00;1.00;;;;;;5015115;28;20520;-87
2022/09/02 08:12:43;;;;;;;1.70;0.30;;;28.10;1.00;;;;;;5015257;28;20183;-84
2022/09/02 08:15:09;;;;;;;0.60;0.20;;;26.70;1.00;;;;;;5015390;28;20448;-86
2022/09/02 08:17:39;;;;;;;0.40;0.40;;;26.50;1.00;;;;;;5014735;28;20426;-84
2022/09/02 08:20:07;;;;;;;0.50;0.20;;;25.50;1.00;;;;;;5014263;28;20489;-84
2022/09/02 08:22:34;;;;;;;0.40;0.20;;;27.30;1.00;;;;;;5015408;28;20437;-85
2022/09/02 08:25:00;;;;;;;0.70;0.30;;;27.40;1.00;;;;;;5014889;28;20437;-85
2022/09/02 08:27:26;;;;;;;0.40;0.20;;;27.70;1.00;;;;;;5015214;28;20418;-86
2022/09/02 08:29:52;;;;;;;0.60;0.30;;;27.60;1.00;;;;;;5015131;28;20250;-87
2022/09/02 08:32:20;;;;;;;0.80;0.37;;;27.80;1.00;;;;;;5015158;28;20410;-87
2022/09/02 08:34:46;;;;;;;0.40;0.20;;;28.60;1.00;;;;;;5014979;28;20845;-88
2022/09/02 08:37:12;;;;;;;0.50;0.20;;;28.90;1.00;;;;;;4975101;28;20566;-87
2022/09/02 08:39:38;;;;;;;0.70;0.20;;;29.30;1.00;;;;;;5014540;28;20532;-86
2022/09/02 08:42:11;;;;;;;0.70;0.30;;;28.50;1.00;;;;;;5014706;28;20175;-86
2022/09/02 08:44:38;;;;;;;0.97;0.20;;;28.30;1.00;;;;;;5013574;28;20190;-86
2022/09/02 08:47:08;;;;;;;0.83;0.20;;;27.40;1.00;;;;;;5013497;28;20508;-87
2022/09/02 08:49:40;;;;;;;0.50;0.20;;;27.60;1.00;;;;;;5010125;28;20475;-86
2022/09/02 08:52:09;;;;;;;0.73;0.20;;;28.40;1.00;;;;;;4995239;28;20961;-88
2022/09/02 08:54:51;;;;;;;0.57;0.27;;;28.80;1.00;;;;;;4994960;28;20407;-87
2022/09/02 08:57:17;;;;;;;0.77;0.27;;;29.20;1.00;;;;;;4994494;28;20423;-85
2022/09/02 08:59:43;;;;;;;0.60;0.20;;;29.30;1.00;;;;;;4994903;28;20477;-85
2022/09/02 09:02:40;;;;;;;0.70;0.20;;;29.30;1.00;;;;;;4995116;28;20518;-86
2022/09/02 09:05:14;;;;;;;0.50;0.20;;;29.30;1.00;;;;;;4994909;28;20973;-86
2022/09/02 09:08:03;;;;;;;0.50;0.20;;;30.00;1.00;;;;;;4994954;28;20435;-87
2022/09/02 09:10:50;;;;;;;0.57;0.20;;;30.40;1.00;;;;;;4993592;28;20474;-87
2022/09/02 09:13:40;;;;;;;0.63;0.20;;;29.20;1.00;;;;;;4993563;28;20954;-85
2022/09/02 09:16:27;;;;;;;0.40;0.20;;;29.40;1.00;;;;;;4995144;28;20415;-87
2022/09/02 09:19:12;;;;;;;0.70;0.23;;;29.90;1.00;;;;;;4994779;28;20414;-87
2022/09/02 09:21:39;;;;;;;0.87;0.20;;;29.80;1.00;;;;;;4994689;28;20953;-87
2022/09/02 09:24:19;;;;;;;0.87;0.20;;;28.40;1.00;;;;;;4994450;28;20506;-87
2022/09/02 09:26:46;;;;;;;0.93;0.20;;;29.70;1.00;;;;;;4994564;28;20455;-87
2022/09/02 09:29:12;;;;;;;0.50;0.20;;;29.20;1.00;;;;;;4994468;28;20419;-88
2022/09/02 09:31:39;;;;;;;0.60;0.30;;;29.50;1.00;;;;;;4994626;28;20484;-87
2022/09/02 09:34:11;;;;;;;0.70;0.20;;;29.00;1.00;;;;;;4994357;28;20445;-87
2022/09/02 09:36:39;;;;;;;0.50;0.23;;;27.80;1.00;;;;;;4994402;28;20588;-86
2022/09/02 09:39:23;;;;;;;0.80;0.20;;;28.00;1.00;;;;;;4994079;28;20784;-85
2022/09/02 09:41:50;;;;;;;0.83;0.30;;;27.90;1.00;;;;;;4994385;28;20994;-89
2022/09/02 09:44:40;;;;;;;1.43;0.30;;;27.20;1.00;;;;;;4959439;28;20577;-86
2022/09/02 09:47:09;;;;;;;0.70;0.30;;;28.10;1.00;;;;;;4994334;28;20465;-85
2022/09/02 09:49:36;;;;;;;0.43;0.20;;;28.10;1.00;;;;;;5010736;28;20474;-84
2022/09/02 09:52:02;;;;;;;0.70;0.30;;;28.70;1.00;;;;;;5013702;28;20417;-86
2022/09/02 09:54:28;;;;;;;0.60;0.30;;;29.10;1.00;;;;;;5013509;28;20536;-86
2022/09/02 09:56:54;;;;;;;0.73;0.30;;;28.20;1.00;;;;;;5013588;28;20509;-86
2022/09/02 09:59:55;;;;;;;0.63;0.20;;;28.50;1.00;;;;;;5013568;28;20178;-91
2022/09/02 10:02:23;;;;;;;0.50;0.30;;;29.40;1.00;;;;;;4972002;28;20468;-84
2022/09/02 10:05:10;;;;;;;0.50;0.20;;;27.40;1.00;;;;;;5013664;28;20501;-87
2022/09/02 10:07:38;;;;;;;0.50;0.27;;;28.00;1.00;;;;;;5013480;28;20425;-84
2022/09/02 10:10:18;;;;;;;0.77;0.20;;;27.70;1.00;;;;;;5013422;28;20465;-84
2022/09/02 10:12:46;;;;;;;0.97;0.20;;;28.70;1.00;;;;;;5013903;28;20445;-86
2022/09/02 10:15:12;;;;;;;0.97;0.20;;;27.30;1.00;;;;;;5013354;28;20410;-84
2022/09/02 10:18:04;;;;;;;0.73;0.40;;;28.30;1.00;;;;;;5013568;28;20422;-84
2022/09/02 10:20:49;;;;;;;0.73;0.20;;;29.00;1.00;;;;;;5013595;28;20170;-91
2022/09/02 10:23:39;;;;;;;0.63;0.20;;;28.80;1.00;;;;;;5013308;28;20398;-83
2022/09/02 10:26:18;;;;;;;0.60;0.30;;;26.70;1.00;;;;;;5013717;28;20465;-87
2022/09/02 10:28:53;;;;;;;0.43;0.20;;;27.60;1.00;;;;;;5013455;28;20959;-87
2022/09/02 10:31:34;;;;;;;0.50;0.37;;;28.90;1.00;;;;;;5013386;28;20461;-89
2022/09/02 10:34:08;;;;;;;0.50;0.20;;;28.00;1.00;;;;;;5013844;28;20504;-86
2022/09/02 10:36:43;;;;;;;0.50;0.20;;;28.50;1.00;;;;;;5014076;28;20434;-86
2022/09/02 10:39:21;;;;;;;0.47;0.20;;;28.90;1.00;;;;;;5013159;28;20921;-86
2022/09/02 10:41:48;;;;;;;1.17;0.20;;;29.30;1.00;;;;;;4996232;28;20457;-82
2022/09/02 10:44:26;;;;;;;0.80;0.23;;;27.60;1.00;;;;;;4974827;28;20448;-83
2022/09/02 10:46:59;;;;;;;1.50;0.40;;;28.10;1.00;;;;;;5002606;28;20429;-84
2022/09/02 10:49:56;;;;;;;1.43;0.30;;;28.30;1.00;;;;;;5012577;28;20501;-85
2022/09/02 10:52:21;;;;;;;0.90;0.20;;;28.20;1.00;;;;;;5013277;28;20448;-84
2022/09/02 10:55:12;;;;;;;0.50;0.20;;;28.90;1.00;;;;;;5012817;28;20409;-84
2022/09/02 10:57:51;;;;;;;0.50;0.20;;;29.40;1.00;;;;;;4998497;28;20205;-83
2022/09/02 11:00:24;;;;;;;0.47;0.20;;;30.10;1.00;;;;;;5013006;28;20829;-80
2022/09/02 11:03:11;;;;;;;0.43;0.20;;;29.00;1.00;;;;;;5013107;28;20430;-84
2022/09/02 11:05:50;;;;;;;0.40;0.20;;;29.60;1.00;;;;;;5012981;28;20926;-88
2022/09/02 11:08:38;;;;;;;0.47;0.20;;;29.90;1.00;;;;;;5012508;28;20512;-82
2022/09/02 11:11:20;;;;;;;0.70;0.30;;;28.60;1.00;;;;;;5013340;28;20512;-82
2022/09/02 11:13:56;;;;;;;0.97;0.37;;;29.40;1.00;;;;;;5013174;28;20417;-86
2022/09/02 11:16:27;;;;;;;0.53;0.20;;;28.80;1.00;;;;;;5012976;28;20421;-84
2022/09/02 11:19:00;;;;;;;0.93;0.20;;;27.10;1.00;;;;;;5013829;28;20448;-90
2022/09/02 11:21:47;;;;;;;0.50;0.20;;;27.20;1.00;;;;;;5016809;28;20434;-90
2022/09/02 11:24:32;;;;;;;0.80;0.40;;;29.30;1.00;;;;;;5011614;28;20449;-89
2022/09/02 11:27:14;;;;;;;0.40;0.20;;;30.20;1.00;;;;;;5012635;28;20402;-87
2022/09/02 11:30:07;;;;;;;0.50;0.30;;;30.40;1.00;;;;;;5017300;28;20531;-85
2022/09/02 11:32:42;;;;;;;0.50;0.20;;;29.30;1.00;;;;;;5017800;28;20425;-89
2022/09/02 11:35:21;;;;;;;0.50;0.33;;;28.60;1.00;;;;;;5014953;28;20775;-87
2022/09/02 11:37:57;;;;;;;0.47;0.20;;;28.80;1.00;;;;;;5015505;28;20564;-91
2022/09/02 11:40:33;;;;;;;0.70;0.23;;;29.00;1.00;;;;;;5015641;28;20961;-85
2022/09/02 11:43:20;;;;;;;0.90;0.43;;;29.30;1.00;;;;;;5016786;28;20902;-90
2022/09/02 11:45:55;;;;;;;0.70;0.20;;;28.90;1.00;;;;;;5017124;28;20402;-85
2022/09/02 11:49:02;;;;;;;0.57;0.20;;;27.50;1.00;;;;;;5000618;28;20474;-89
2022/09/02 11:52:01;;;;;;;0.40;0.20;;;28.90;1.00;;;;;;4958380;28;20488;-86
2022/09/02 11:54:34;;;;;;;0.50;0.30;;;28.20;1.00;;;;;;5001848;28;20430;-85
2022/09/02 11:57:03;;;;;;;0.40;0.20;;;28.60;1.00;;;;;;5010265;28;20445;-83
2022/09/02 11:59:50;;;;;;;0.70;0.20;;;28.50;1.00;;;;;;5015628;28;20426;-87
2022/09/02 12:02:50;;;;;;;0.40;0.20;;;28.20;1.00;;;;;;5013571;28;20434;-85
2022/09/02 12:05:28;;;;;;;0.50;0.30;;;27.90;1.00;;;;;;5014765;28;20458;-86
2022/09/02 12:08:08;;;;;;;1.33;0.20;;;28.30;1.00;;;;;;5013096;28;20429;-87
2022/09/02 12:10:42;;;;;;;0.83;0.70;;;28.10;1.00;;;;;;5013002;28;20461;-85
2022/09/02 12:13:43;;;;;;;0.70;0.20;;;28.80;1.00;;;;;;5012581;28;20425;-87
2022/09/02 12:16:15;;;;;;;0.50;0.20;;;29.10;1.00;;;;;;4996134;28;20433;-88
2022/09/02 12:19:07;;;;;;;0.70;0.20;;;28.20;1.00;;;;;;5001397;28;20821;-83
2022/09/02 12:21:34;;;;;;;0.50;0.20;;;28.50;1.00;;;;;;4995966;28;21290;-84
2022/09/02 12:24:02;;;;;;;1.00;0.20;;;26.60;1.00;;;;;;4995371;28;20513;-85
2022/09/02 12:26:34;;;;;;;0.40;0.20;;;28.10;1.00;;;;;;5009241;28;20476;-83
2022/09/02 12:29:31;;;;;;;0.60;0.30;;;27.20;1.00;;;;;;5010120;28;20434;-85
2022/09/02 12:31:57;;;;;;;2.10;0.20;;;27.30;1.00;;;;;;4997758;28;20526;-86
2022/09/02 12:34:23;;;;;;;0.60;0.20;;;26.60;1.00;;;;;;4995719;28;20411;-88
2022/09/02 12:36:50;;;;;;;0.60;0.20;;;25.20;1.00;;;;;;4989773;28;20430;-86
2022/09/02 12:39:22;;;;;;;0.40;0.20;;;26.40;1.00;;;;;;5015138;28;20559;-86
2022/09/02 12:42:06;;;;;;;0.60;0.30;;;25.80;1.00;;;;;;5014914;28;20504;-86
2022/09/02 12:44:55;;;;;;;1.83;0.20;;;26.70;1.00;;;;;;4997382;28;20429;-86
2022/09/02 12:47:32;;;;;;;0.40;0.20;;;28.20;1.00;;;;;;5009404;28;20448;-85
2022/09/02 12:50:12;;;;;;;1.43;0.20;;;28.70;1.00;;;;;;5014884;28;20493;-87
2022/09/02 12:52:44;;;;;;;1.30;0.20;;;28.40;1.00;;;;;;4997000;28;20418;-86
2022/09/02 12:55:30;;;;;;;0.40;0.20;;;27.40;1.00;;;;;;5010222;28;20429;-86
2022/09/02 12:58:08;;;;;;;0.93;0.20;;;28.30;1.00;;;;;;4991211;28;20906;-87
2022/09/02 13:00:45;;;;;;;0.50;0.30;;;28.00;1.00;;;;;;4997019;28;20976;-86
2022/09/02 13:03:48;;;;;;;1.43;0.27;;;28.70;1.00;;;;;;5013590;28;20461;-86
2022/09/02 13:06:44;;;;;;;0.60;0.30;;;29.20;1.00;;;;;;5014381;28;20410;-84
2022/09/02 13:09:28;;;;;;;0.60;0.20;;;27.80;1.00;;;;;;5003770;28;20426;-85
2022/09/02 13:12:09;;;;;;;0.70;0.30;;;27.60;1.00;;;;;;5014423;28;20422;-83
2022/09/02 13:15:04;;;;;;;0.73;0.20;;;27.50;1.00;;;;;;5012923;28;20438;-85